sensor_id;sensor_type;location;lat;lon;timestamp;P1;durP1;ratioP1;P2;durP2;ratioP2
23302;SDS011;11820;48.738;9.092;2023-04-24T00:00:11;1.33;;;0.70;;
23302;SDS011;11820;48.738;9.092;2023-04-24T00:02:43;3.40;;;0.90;;
23302;SDS011;11820;48.738;9.092;2023-04-24T00:05:15;1.23;;;1.07;;
23302;SDS011;11820;48.738;9.092;2023-04-24T00:07:43;3.00;;;0.60;;
23302;SDS011;11820;48.738;9.092;2023-04-24T00:10:09;2.40;;;0.83;;
23302;SDS011;11820;48.738;9.092;2023-04-24T00:12:36;0.83;;;0.60;;
23302;SDS011;11820;48.738;9.092;2023-04-24T00:15:01;1.93;;;0.50;;
23302;SDS011;11820;48.738;9.092;2023-04-24T00:17:27;2.03;;;0.90;;
23302;SDS011;11820;48.738;9.092;2023-04-24T00:19:52;2.30;;;0.80;;
23302;SDS011;11820;48.738;9.092;2023-04-24T00:22:23;0.70;;;0.60;;
23302;SDS011;11820;48.738;9.092;2023-04-24T00:24:49;1.10;;;0.60;;
23302;SDS011;11820;48.738;9.092;2023-04-24T00:27:15;1.50;;;0.97;;
23302;SDS011;11820;48.738;9.092;2023-04-24T00:29:40;1.53;;;0.80;;
23302;SDS011;11820;48.738;9.092;2023-04-24T00:32:05;0.90;;;0.70;;
23302;SDS011;11820;48.738;9.092;2023-04-24T00:34:31;1.30;;;0.90;;
23302;SDS011;11820;48.738;9.092;2023-04-24T00:36:57;1.70;;;0.83;;
23302;SDS011;11820;48.738;9.092;2023-04-24T00:39:22;0.80;;;0.70;;
23302;SDS011;11820;48.738;9.092;2023-04-24T00:41:48;1.00;;;0.60;;
23302;SDS011;11820;48.738;9.092;2023-04-24T00:44:14;1.23;;;0.70;;
23302;SDS011;11820;48.738;9.092;2023-04-24T00:46:39;1.30;;;0.90;;
23302;SDS011;11820;48.738;9.092;2023-04-24T00:49:05;3.63;;;1.00;;
23302;SDS011;11820;48.738;9.092;2023-04-24T00:51:31;2.50;;;0.70;;
23302;SDS011;11820;48.738;9.092;2023-04-24T00:53:57;1.77;;;0.80;;
23302;SDS011;11820;48.738;9.092;2023-04-24T00:56:23;1.07;;;0.60;;
23302;SDS011;11820;48.738;9.092;2023-04-24T00:58:49;2.73;;;0.73;;
23302;SDS011;11820;48.738;9.092;2023-04-24T01:01:15;1.40;;;0.70;;
23302;SDS011;11820;48.738;9.092;2023-04-24T01:03:40;1.80;;;0.70;;
23302;SDS011;11820;48.738;9.092;2023-04-24T01:06:06;0.67;;;0.50;;
23302;SDS011;11820;48.738;9.092;2023-04-24T01:08:32;1.00;;;0.80;;
23302;SDS011;11820;48.738;9.092;2023-04-24T01:10:57;1.57;;;0.93;;
23302;SDS011;11820;48.738;9.092;2023-04-24T01:13:23;1.60;;;0.77;;
23302;SDS011;11820;48.738;9.092;2023-04-24T01:15:48;1.33;;;0.73;;
23302;SDS011;11820;48.738;9.092;2023-04-24T01:18:14;1.60;;;0.80;;
23302;SDS011;11820;48.738;9.092;2023-04-24T01:20:40;2.40;;;0.70;;
23302;SDS011;11820;48.738;9.092;2023-04-24T01:23:08;1.97;;;0.60;;
23302;SDS011;11820;48.738;9.092;2023-04-24T01:25:34;2.23;;;0.70;;
23302;SDS011;11820;48.738;9.092;2023-04-24T01:28:00;0.73;;;0.57;;
23302;SDS011;11820;48.738;9.092;2023-04-24T01:30:26;1.30;;;0.90;;
23302;SDS011;11820;48.738;9.092;2023-04-24T01:32:52;2.27;;;0.90;;
23302;SDS011;11820;48.738;9.092;2023-04-24T01:35:18;2.97;;;1.10;;
23302;SDS011;11820;48.738;9.092;2023-04-24T01:37:43;2.43;;;0.70;;
23302;SDS011;11820;48.738;9.092;2023-04-24T01:40:09;1.67;;;0.83;;
23302;SDS011;11820;48.738;9.092;2023-04-24T01:42:35;2.37;;;1.07;;
23302;SDS011;11820;48.738;9.092;2023-04-24T01:45:01;1.90;;;0.80;;
23302;SDS011;11820;48.738;9.092;2023-04-24T01:47:28;1.33;;;0.70;;
23302;SDS011;11820;48.738;9.092;2023-04-24T01:49:55;1.70;;;0.60;;
23302;SDS011;11820;48.738;9.092;2023-04-24T01:52:21;1.63;;;0.70;;
23302;SDS011;11820;48.738;9.092;2023-04-24T01:54:46;0.97;;;0.70;;
23302;SDS011;11820;48.738;9.092;2023-04-24T01:57:12;2.50;;;0.70;;
23302;SDS011;11820;48.738;9.092;2023-04-24T01:59:39;0.83;;;0.70;;
23302;SDS011;11820;48.738;9.092;2023-04-24T02:02:04;1.60;;;0.80;;
23302;SDS011;11820;48.738;9.092;2023-04-24T02:04:29;0.63;;;0.57;;
23302;SDS011;11820;48.738;9.092;2023-04-24T02:06:54;1.97;;;0.60;;
23302;SDS011;11820;48.738;9.092;2023-04-24T02:09:20;2.80;;;0.80;;
23302;SDS011;11820;48.738;9.092;2023-04-24T02:11:45;0.70;;;0.70;;
23302;SDS011;11820;48.738;9.092;2023-04-24T02:14:11;2.47;;;0.73;;
23302;SDS011;11820;48.738;9.092;2023-04-24T02:16:36;1.10;;;0.70;;
23302;SDS011;11820;48.738;9.092;2023-04-24T02:19:02;0.60;;;0.50;;
23302;SDS011;11820;48.738;9.092;2023-04-24T02:21:27;2.10;;;0.83;;
23302;SDS011;11820;48.738;9.092;2023-04-24T02:23:53;1.10;;;0.70;;
23302;SDS011;11820;48.738;9.092;2023-04-24T02:26:19;2.73;;;0.80;;
23302;SDS011;11820;48.738;9.092;2023-04-24T02:28:44;1.87;;;0.70;;
23302;SDS011;11820;48.738;9.092;2023-04-24T02:31:10;1.23;;;0.60;;
23302;SDS011;11820;48.738;9.092;2023-04-24T02:33:35;2.33;;;0.70;;
23302;SDS011;11820;48.738;9.092;2023-04-24T02:36:01;0.97;;;0.67;;
23302;SDS011;11820;48.738;9.092;2023-04-24T02:38:27;6.03;;;1.37;;
23302;SDS011;11820;48.738;9.092;2023-04-24T02:40:52;1.00;;;0.50;;
23302;SDS011;11820;48.738;9.092;2023-04-24T02:43:17;1.60;;;0.70;;
23302;SDS011;11820;48.738;9.092;2023-04-24T02:45:43;2.30;;;0.70;;
23302;SDS011;11820;48.738;9.092;2023-04-24T02:48:08;1.47;;;0.80;;
23302;SDS011;11820;48.738;9.092;2023-04-24T02:50:33;1.60;;;0.83;;
23302;SDS011;11820;48.738;9.092;2023-04-24T02:52:59;2.90;;;1.00;;
23302;SDS011;11820;48.738;9.092;2023-04-24T02:55:24;2.93;;;0.87;;
23302;SDS011;11820;48.738;9.092;2023-04-24T02:57:50;2.43;;;0.80;;
23302;SDS011;11820;48.738;9.092;2023-04-24T03:00:15;1.93;;;0.93;;
23302;SDS011;11820;48.738;9.092;2023-04-24T03:02:41;0.50;;;0.50;;
23302;SDS011;11820;48.738;9.092;2023-04-24T03:05:06;2.10;;;0.63;;
23302;SDS011;11820;48.738;9.092;2023-04-24T03:07:32;0.67;;;0.53;;
23302;SDS011;11820;48.738;9.092;2023-04-24T03:09:58;0.80;;;0.63;;
23302;SDS011;11820;48.738;9.092;2023-04-24T03:12:24;1.00;;;0.70;;
23302;SDS011;11820;48.738;9.092;2023-04-24T03:14:49;0.87;;;0.70;;
23302;SDS011;11820;48.738;9.092;2023-04-24T03:17:15;1.70;;;0.80;;
23302;SDS011;11820;48.738;9.092;2023-04-24T03:19:40;4.07;;;1.07;;
23302;SDS011;11820;48.738;9.092;2023-04-24T03:22:05;3.10;;;0.70;;
23302;SDS011;11820;48.738;9.092;2023-04-24T03:24:31;1.20;;;0.70;;
23302;SDS011;11820;48.738;9.092;2023-04-24T03:26:56;2.30;;;0.97;;
23302;SDS011;11820;48.738;9.092;2023-04-24T03:29:22;1.77;;;1.07;;
23302;SDS011;11820;48.738;9.092;2023-04-24T03:31:47;0.93;;;0.53;;
23302;SDS011;11820;48.738;9.092;2023-04-24T03:34:12;2.80;;;0.80;;
23302;SDS011;11820;48.738;9.092;2023-04-24T03:36:38;1.67;;;0.77;;
23302;SDS011;11820;48.738;9.092;2023-04-24T03:39:03;2.90;;;1.00;;
23302;SDS011;11820;48.738;9.092;2023-04-24T03:41:28;1.30;;;0.77;;
23302;SDS011;11820;48.738;9.092;2023-04-24T03:43:55;3.10;;;1.00;;
23302;SDS011;11820;48.738;9.092;2023-04-24T03:46:20;3.53;;;0.80;;
23302;SDS011;11820;48.738;9.092;2023-04-24T03:48:46;2.23;;;0.80;;
23302;SDS011;11820;48.738;9.092;2023-04-24T03:51:11;1.60;;;0.70;;
23302;SDS011;11820;48.738;9.092;2023-04-24T03:53:36;2.07;;;0.80;;
23302;SDS011;11820;48.738;9.092;2023-04-24T03:56:02;2.13;;;0.73;;
23302;SDS011;11820;48.738;9.092;2023-04-24T03:58:27;1.77;;;0.60;;
23302;SDS011;11820;48.738;9.092;2023-04-24T04:00:53;1.37;;;0.60;;
23302;SDS011;11820;48.738;9.092;2023-04-24T04:03:18;2.00;;;0.70;;
23302;SDS011;11820;48.738;9.092;2023-04-24T04:05:44;1.30;;;0.97;;
23302;SDS011;11820;48.738;9.092;2023-04-24T04:08:09;1.43;;;0.73;;
23302;SDS011;11820;48.738;9.092;2023-04-24T04:10:35;3.37;;;0.60;;
23302;SDS011;11820;48.738;9.092;2023-04-24T04:13:00;4.30;;;0.63;;
23302;SDS011;11820;48.738;9.092;2023-04-24T04:15:25;1.87;;;0.67;;
23302;SDS011;11820;48.738;9.092;2023-04-24T04:17:51;2.83;;;0.70;;
23302;SDS011;11820;48.738;9.092;2023-04-24T04:20:16;3.17;;;0.77;;
23302;SDS011;11820;48.738;9.092;2023-04-24T04:22:41;0.63;;;0.53;;
23302;SDS011;11820;48.738;9.092;2023-04-24T04:25:07;1.67;;;0.80;;
23302;SDS011;11820;48.738;9.092;2023-04-24T04:27:33;1.53;;;0.83;;
23302;SDS011;11820;48.738;9.092;2023-04-24T04:29:59;4.13;;;1.03;;
23302;SDS011;11820;48.738;9.092;2023-04-24T04:32:29;2.87;;;0.80;;
23302;SDS011;11820;48.738;9.092;2023-04-24T04:34:56;2.60;;;1.00;;
23302;SDS011;11820;48.738;9.092;2023-04-24T04:37:21;0.90;;;0.80;;
23302;SDS011;11820;48.738;9.092;2023-04-24T04:39:46;1.60;;;0.93;;
23302;SDS011;11820;48.738;9.092;2023-04-24T04:42:12;0.93;;;0.90;;
23302;SDS011;11820;48.738;9.092;2023-04-24T04:44:38;1.70;;;0.80;;
23302;SDS011;11820;48.738;9.092;2023-04-24T04:47:04;1.10;;;1.00;;
23302;SDS011;11820;48.738;9.092;2023-04-24T04:49:30;6.67;;;1.03;;
23302;SDS011;11820;48.738;9.092;2023-04-24T04:51:56;1.30;;;1.03;;
23302;SDS011;11820;48.738;9.092;2023-04-24T04:54:22;1.70;;;0.90;;
23302;SDS011;11820;48.738;9.092;2023-04-24T04:56:49;1.37;;;0.90;;
23302;SDS011;11820;48.738;9.092;2023-04-24T04:59:15;1.10;;;0.90;;
23302;SDS011;11820;48.738;9.092;2023-04-24T05:01:40;1.53;;;1.20;;
23302;SDS011;11820;48.738;9.092;2023-04-24T05:04:06;2.50;;;1.00;;
23302;SDS011;11820;48.738;9.092;2023-04-24T05:06:31;1.20;;;1.10;;
23302;SDS011;11820;48.738;9.092;2023-04-24T05:08:56;1.60;;;1.00;;
23302;SDS011;11820;48.738;9.092;2023-04-24T05:11:22;0.90;;;0.90;;
23302;SDS011;11820;48.738;9.092;2023-04-24T05:13:48;1.37;;;0.93;;
23302;SDS011;11820;48.738;9.092;2023-04-24T05:16:13;1.10;;;1.00;;
23302;SDS011;11820;48.738;9.092;2023-04-24T05:18:38;1.10;;;0.90;;
23302;SDS011;11820;48.738;9.092;2023-04-24T05:21:04;1.17;;;1.00;;
23302;SDS011;11820;48.738;9.092;2023-04-24T05:23:29;1.00;;;0.90;;
23302;SDS011;11820;48.738;9.092;2023-04-24T05:25:54;2.40;;;1.20;;
23302;SDS011;11820;48.738;9.092;2023-04-24T05:28:20;1.50;;;1.20;;
23302;SDS011;11820;48.738;9.092;2023-04-24T05:30:46;2.07;;;1.20;;
23302;SDS011;11820;48.738;9.092;2023-04-24T05:33:11;1.03;;;0.93;;
23302;SDS011;11820;48.738;9.092;2023-04-24T05:35:36;1.53;;;0.87;;
23302;SDS011;11820;48.738;9.092;2023-04-24T05:38:02;2.43;;;1.23;;
23302;SDS011;11820;48.738;9.092;2023-04-24T05:40:28;2.00;;;1.10;;
23302;SDS011;11820;48.738;9.092;2023-04-24T05:42:53;1.43;;;1.20;;
23302;SDS011;11820;48.738;9.092;2023-04-24T05:45:18;1.70;;;1.20;;
23302;SDS011;11820;48.738;9.092;2023-04-24T05:47:44;2.57;;;1.57;;
23302;SDS011;11820;48.738;9.092;2023-04-24T05:50:10;1.43;;;1.13;;
23302;SDS011;11820;48.738;9.092;2023-04-24T05:52:35;2.43;;;1.70;;
23302;SDS011;11820;48.738;9.092;2023-04-24T05:55:01;1.53;;;1.33;;
23302;SDS011;11820;48.738;9.092;2023-04-24T05:57:26;1.20;;;1.03;;
23302;SDS011;11820;48.738;9.092;2023-04-24T05:59:52;2.40;;;1.40;;
23302;SDS011;11820;48.738;9.092;2023-04-24T06:02:17;1.70;;;1.60;;
23302;SDS011;11820;48.738;9.092;2023-04-24T06:04:42;1.60;;;1.27;;
23302;SDS011;11820;48.738;9.092;2023-04-24T06:07:09;1.70;;;1.60;;
23302;SDS011;11820;48.738;9.092;2023-04-24T06:09:35;2.63;;;1.40;;
23302;SDS011;11820;48.738;9.092;2023-04-24T06:12:01;1.80;;;1.40;;
23302;SDS011;11820;48.738;9.092;2023-04-24T06:14:27;2.20;;;1.70;;
23302;SDS011;11820;48.738;9.092;2023-04-24T06:16:53;2.83;;;1.53;;
23302;SDS011;11820;48.738;9.092;2023-04-24T06:19:18;2.47;;;1.80;;
23302;SDS011;11820;48.738;9.092;2023-04-24T06:21:43;2.40;;;1.50;;
23302;SDS011;11820;48.738;9.092;2023-04-24T06:24:09;2.90;;;1.50;;
23302;SDS011;11820;48.738;9.092;2023-04-24T06:26:35;1.70;;;1.60;;
23302;SDS011;11820;48.738;9.092;2023-04-24T06:29:00;1.67;;;1.40;;
23302;SDS011;11820;48.738;9.092;2023-04-24T06:31:25;2.87;;;1.70;;
23302;SDS011;11820;48.738;9.092;2023-04-24T06:33:51;3.40;;;1.57;;
23302;SDS011;11820;48.738;9.092;2023-04-24T06:36:16;2.07;;;1.57;;
23302;SDS011;11820;48.738;9.092;2023-04-24T06:38:42;2.60;;;1.60;;
23302;SDS011;11820;48.738;9.092;2023-04-24T06:41:07;1.93;;;1.73;;
23302;SDS011;11820;48.738;9.092;2023-04-24T06:43:32;2.57;;;1.50;;
23302;SDS011;11820;48.738;9.092;2023-04-24T06:45:59;1.50;;;1.40;;
23302;SDS011;11820;48.738;9.092;2023-04-24T06:48:25;3.83;;;1.60;;
23302;SDS011;11820;48.738;9.092;2023-04-24T06:50:51;1.37;;;1.27;;
23302;SDS011;11820;48.738;9.092;2023-04-24T06:53:16;2.13;;;1.50;;
23302;SDS011;11820;48.738;9.092;2023-04-24T06:55:42;1.93;;;1.60;;
23302;SDS011;11820;48.738;9.092;2023-04-24T06:58:09;3.47;;;1.47;;
23302;SDS011;11820;48.738;9.092;2023-04-24T07:00:35;3.77;;;1.57;;
23302;SDS011;11820;48.738;9.092;2023-04-24T07:03:00;1.47;;;1.30;;
23302;SDS011;11820;48.738;9.092;2023-04-24T07:05:27;1.50;;;1.40;;
23302;SDS011;11820;48.738;9.092;2023-04-24T07:07:53;3.27;;;1.47;;
23302;SDS011;11820;48.738;9.092;2023-04-24T07:10:18;2.50;;;1.50;;
23302;SDS011;11820;48.738;9.092;2023-04-24T07:12:45;1.50;;;1.40;;
23302;SDS011;11820;48.738;9.092;2023-04-24T07:15:10;1.33;;;1.23;;
23302;SDS011;11820;48.738;9.092;2023-04-24T07:17:35;1.33;;;1.23;;
23302;SDS011;11820;48.738;9.092;2023-04-24T07:20:03;1.40;;;1.30;;
23302;SDS011;11820;48.738;9.092;2023-04-24T07:22:29;1.40;;;1.20;;
23302;SDS011;11820;48.738;9.092;2023-04-24T07:24:54;2.57;;;1.40;;
23302;SDS011;11820;48.738;9.092;2023-04-24T07:27:20;1.80;;;1.70;;
23302;SDS011;11820;48.738;9.092;2023-04-24T07:29:45;4.10;;;1.50;;
23302;SDS011;11820;48.738;9.092;2023-04-24T07:32:10;1.27;;;1.17;;
23302;SDS011;11820;48.738;9.092;2023-04-24T07:34:36;2.83;;;1.43;;
23302;SDS011;11820;48.738;9.092;2023-04-24T07:37:01;2.60;;;1.93;;
23302;SDS011;11820;48.738;9.092;2023-04-24T07:39:26;2.70;;;1.50;;
23302;SDS011;11820;48.738;9.092;2023-04-24T07:41:52;1.93;;;1.20;;
23302;SDS011;11820;48.738;9.092;2023-04-24T07:44:18;5.50;;;1.30;;
23302;SDS011;11820;48.738;9.092;2023-04-24T07:46:43;3.10;;;1.13;;
23302;SDS011;11820;48.738;9.092;2023-04-24T07:49:08;1.13;;;1.03;;
23302;SDS011;11820;48.738;9.092;2023-04-24T07:51:34;1.67;;;1.20;;
23302;SDS011;11820;48.738;9.092;2023-04-24T07:54:03;1.23;;;1.03;;
23302;SDS011;11820;48.738;9.092;2023-04-24T07:56:31;3.23;;;1.30;;
23302;SDS011;11820;48.738;9.092;2023-04-24T07:58:58;1.30;;;1.20;;
23302;SDS011;11820;48.738;9.092;2023-04-24T08:01:23;1.70;;;1.10;;
23302;SDS011;11820;48.738;9.092;2023-04-24T08:03:49;5.17;;;1.20;;
23302;SDS011;11820;48.738;9.092;2023-04-24T08:06:14;4.07;;;1.07;;
23302;SDS011;11820;48.738;9.092;2023-04-24T08:08:39;1.53;;;1.10;;
23302;SDS011;11820;48.738;9.092;2023-04-24T08:11:04;1.47;;;1.10;;
23302;SDS011;11820;48.738;9.092;2023-04-24T08:13:30;1.97;;;1.20;;
23302;SDS011;11820;48.738;9.092;2023-04-24T08:15:56;3.37;;;1.27;;
23302;SDS011;11820;48.738;9.092;2023-04-24T08:18:21;2.23;;;1.17;;
23302;SDS011;11820;48.738;9.092;2023-04-24T08:20:47;1.30;;;1.03;;
23302;SDS011;11820;48.738;9.092;2023-04-24T08:23:12;4.23;;;1.30;;
23302;SDS011;11820;48.738;9.092;2023-04-24T08:25:38;2.03;;;1.10;;
23302;SDS011;11820;48.738;9.092;2023-04-24T08:28:05;3.90;;;1.50;;
23302;SDS011;11820;48.738;9.092;2023-04-24T08:30:31;3.37;;;1.10;;
23302;SDS011;11820;48.738;9.092;2023-04-24T08:32:56;1.17;;;1.07;;
23302;SDS011;11820;48.738;9.092;2023-04-24T08:35:22;1.90;;;1.03;;
23302;SDS011;11820;48.738;9.092;2023-04-24T08:37:48;2.87;;;1.10;;
23302;SDS011;11820;48.738;9.092;2023-04-24T08:40:14;1.70;;;0.83;;
23302;SDS011;11820;48.738;9.092;2023-04-24T08:42:41;4.80;;;1.17;;
23302;SDS011;11820;48.738;9.092;2023-04-24T08:45:08;1.37;;;0.90;;
23302;SDS011;11820;48.738;9.092;2023-04-24T08:47:34;1.77;;;1.20;;
23302;SDS011;11820;48.738;9.092;2023-04-24T08:50:00;2.80;;;1.30;;
23302;SDS011;11820;48.738;9.092;2023-04-24T08:52:27;2.80;;;1.30;;
23302;SDS011;11820;48.738;9.092;2023-04-24T08:54:53;2.20;;;1.30;;
23302;SDS011;11820;48.738;9.092;2023-04-24T08:57:19;1.40;;;1.17;;
23302;SDS011;11820;48.738;9.092;2023-04-24T08:59:44;1.83;;;1.10;;
23302;SDS011;11820;48.738;9.092;2023-04-24T09:02:11;2.43;;;1.07;;
23302;SDS011;11820;48.738;9.092;2023-04-24T09:04:37;2.37;;;1.23;;
23302;SDS011;11820;48.738;9.092;2023-04-24T09:07:02;2.23;;;1.40;;
23302;SDS011;11820;48.738;9.092;2023-04-24T09:09:30;1.57;;;1.17;;
23302;SDS011;11820;48.738;9.092;2023-04-24T09:11:57;2.90;;;1.30;;
23302;SDS011;11820;48.738;9.092;2023-04-24T09:14:23;1.87;;;1.20;;
23302;SDS011;11820;48.738;9.092;2023-04-24T09:16:49;1.43;;;1.10;;
23302;SDS011;11820;48.738;9.092;2023-04-24T09:19:15;3.03;;;1.10;;
23302;SDS011;11820;48.738;9.092;2023-04-24T09:21:40;2.87;;;1.30;;
23302;SDS011;11820;48.738;9.092;2023-04-24T09:24:14;1.30;;;1.20;;
23302;SDS011;11820;48.738;9.092;2023-04-24T09:26:43;1.43;;;1.33;;
23302;SDS011;11820;48.738;9.092;2023-04-24T09:29:13;3.17;;;1.20;;
23302;SDS011;11820;48.738;9.092;2023-04-24T09:31:40;3.23;;;0.90;;
23302;SDS011;11820;48.738;9.092;2023-04-24T09:34:05;1.50;;;1.27;;
23302;SDS011;11820;48.738;9.092;2023-04-24T09:36:31;2.93;;;1.43;;
23302;SDS011;11820;48.738;9.092;2023-04-24T09:38:58;2.77;;;1.50;;
23302;SDS011;11820;48.738;9.092;2023-04-24T09:41:25;6.57;;;1.30;;
23302;SDS011;11820;48.738;9.092;2023-04-24T09:43:50;1.70;;;0.97;;
23302;SDS011;11820;48.738;9.092;2023-04-24T09:46:19;0.93;;;0.83;;
23302;SDS011;11820;48.738;9.092;2023-04-24T09:48:46;2.50;;;0.80;;
23302;SDS011;11820;48.738;9.092;2023-04-24T09:51:11;1.13;;;1.00;;
23302;SDS011;11820;48.738;9.092;2023-04-24T09:53:37;1.27;;;1.10;;
23302;SDS011;11820;48.738;9.092;2023-04-24T09:56:07;1.17;;;0.80;;
23302;SDS011;11820;48.738;9.092;2023-04-24T09:58:34;4.10;;;0.90;;
23302;SDS011;11820;48.738;9.092;2023-04-24T10:01:03;4.83;;;1.10;;
23302;SDS011;11820;48.738;9.092;2023-04-24T10:03:32;3.17;;;0.90;;
23302;SDS011;11820;48.738;9.092;2023-04-24T10:06:02;4.57;;;1.23;;
23302;SDS011;11820;48.738;9.092;2023-04-24T10:08:33;1.00;;;0.90;;
23302;SDS011;11820;48.738;9.092;2023-04-24T10:11:00;1.47;;;1.03;;
23302;SDS011;11820;48.738;9.092;2023-04-24T10:13:26;3.83;;;1.00;;
23302;SDS011;11820;48.738;9.092;2023-04-24T10:15:52;1.30;;;0.90;;
23302;SDS011;11820;48.738;9.092;2023-04-24T10:18:19;2.00;;;0.95;;
23302;SDS011;11820;48.738;9.092;2023-04-24T10:20:47;1.43;;;1.10;;
23302;SDS011;11820;48.738;9.092;2023-04-24T10:23:12;3.77;;;0.93;;
23302;SDS011;11820;48.738;9.092;2023-04-24T10:25:38;1.10;;;1.00;;
23302;SDS011;11820;48.738;9.092;2023-04-24T10:28:04;1.00;;;0.90;;
23302;SDS011;11820;48.738;9.092;2023-04-24T10:30:31;2.00;;;0.93;;
23302;SDS011;11820;48.738;9.092;2023-04-24T10:33:04;1.20;;;1.10;;
23302;SDS011;11820;48.738;9.092;2023-04-24T10:35:32;2.53;;;1.20;;
23302;SDS011;11820;48.738;9.092;2023-04-24T10:38:02;2.20;;;1.50;;
23302;SDS011;11820;48.738;9.092;2023-04-24T10:40:32;1.20;;;1.10;;
23302;SDS011;11820;48.738;9.092;2023-04-24T10:42:58;1.17;;;0.97;;
23302;SDS011;11820;48.738;9.092;2023-04-24T10:45:24;2.57;;;0.80;;
23302;SDS011;11820;48.738;9.092;2023-04-24T10:50:41;1.20;;;0.90;;
23302;SDS011;11820;48.738;9.092;2023-04-24T10:53:18;1.23;;;0.77;;
23302;SDS011;11820;48.738;9.092;2023-04-24T10:58:13;1.70;;;0.80;;
23302;SDS011;11820;48.738;9.092;2023-04-24T11:00:40;1.10;;;0.87;;
23302;SDS011;11820;48.738;9.092;2023-04-24T11:03:06;1.93;;;0.90;;
23302;SDS011;11820;48.738;9.092;2023-04-24T11:05:51;2.70;;;0.80;;
23302;SDS011;11820;48.738;9.092;2023-04-24T11:08:22;1.00;;;0.80;;
23302;SDS011;11820;48.738;9.092;2023-04-24T11:14:00;1.10;;;0.77;;
23302;SDS011;11820;48.738;9.092;2023-04-24T11:16:26;0.70;;;0.70;;
23302;SDS011;11820;48.738;9.092;2023-04-24T11:19:06;3.60;;;0.90;;
23302;SDS011;11820;48.738;9.092;2023-04-24T11:21:40;2.33;;;1.07;;
23302;SDS011;11820;48.738;9.092;2023-04-24T11:26:55;2.70;;;1.10;;
23302;SDS011;11820;48.738;9.092;2023-04-24T11:29:22;1.50;;;0.93;;
23302;SDS011;11820;48.738;9.092;2023-04-24T11:32:13;1.80;;;1.10;;
23302;SDS011;11820;48.738;9.092;2023-04-24T11:37:45;1.80;;;1.20;;
23302;SDS011;11820;48.738;9.092;2023-04-24T11:40:12;1.47;;;1.03;;
23302;SDS011;11820;48.738;9.092;2023-04-24T11:42:41;2.93;;;1.00;;
23302;SDS011;11820;48.738;9.092;2023-04-24T11:45:15;1.50;;;1.00;;
23302;SDS011;11820;48.738;9.092;2023-04-24T11:47:46;2.50;;;0.90;;
23302;SDS011;11820;48.738;9.092;2023-04-24T11:50:13;0.90;;;0.90;;
23302;SDS011;11820;48.738;9.092;2023-04-24T11:52:40;1.10;;;1.00;;
23302;SDS011;11820;48.738;9.092;2023-04-24T11:55:28;1.98;;;1.10;;
23302;SDS011;11820;48.738;9.092;2023-04-24T11:57:54;1.37;;;1.27;;
23302;SDS011;11820;48.738;9.092;2023-04-24T12:00:22;1.67;;;1.17;;
23302;SDS011;11820;48.738;9.092;2023-04-24T12:02:50;1.73;;;0.90;;
23302;SDS011;11820;48.738;9.092;2023-04-24T12:05:20;2.03;;;0.90;;
23302;SDS011;11820;48.738;9.092;2023-04-24T12:07:45;2.47;;;1.10;;
23302;SDS011;11820;48.738;9.092;2023-04-24T12:10:11;1.70;;;0.90;;
23302;SDS011;11820;48.738;9.092;2023-04-24T12:12:36;1.87;;;1.10;;
23302;SDS011;11820;48.738;9.092;2023-04-24T12:15:05;4.10;;;0.90;;
23302;SDS011;11820;48.738;9.092;2023-04-24T12:17:32;1.70;;;1.10;;
23302;SDS011;11820;48.738;9.092;2023-04-24T12:20:00;3.80;;;1.20;;
23302;SDS011;11820;48.738;9.092;2023-04-24T12:22:27;1.13;;;1.03;;
23302;SDS011;11820;48.738;9.092;2023-04-24T12:24:58;1.97;;;1.53;;
23302;SDS011;11820;48.738;9.092;2023-04-24T12:27:36;1.80;;;1.37;;
23302;SDS011;11820;48.738;9.092;2023-04-24T12:30:02;5.57;;;1.30;;
23302;SDS011;11820;48.738;9.092;2023-04-24T12:32:30;3.23;;;1.30;;
23302;SDS011;11820;48.738;9.092;2023-04-24T12:34:56;2.20;;;1.10;;
23302;SDS011;11820;48.738;9.092;2023-04-24T12:37:25;1.33;;;1.07;;
23302;SDS011;11820;48.738;9.092;2023-04-24T12:40:04;1.23;;;1.10;;
23302;SDS011;11820;48.738;9.092;2023-04-24T12:42:31;1.67;;;1.10;;
23302;SDS011;11820;48.738;9.092;2023-04-24T12:45:04;1.40;;;1.20;;
23302;SDS011;11820;48.738;9.092;2023-04-24T12:47:32;1.27;;;1.03;;
23302;SDS011;11820;48.738;9.092;2023-04-24T12:49:59;1.17;;;0.90;;
23302;SDS011;11820;48.738;9.092;2023-04-24T12:52:25;1.47;;;1.07;;
23302;SDS011;11820;48.738;9.092;2023-04-24T12:54:55;1.50;;;0.90;;
23302;SDS011;11820;48.738;9.092;2023-04-24T12:57:22;2.13;;;1.00;;
23302;SDS011;11820;48.738;9.092;2023-04-24T12:59:48;2.57;;;1.00;;
23302;SDS011;11820;48.738;9.092;2023-04-24T13:02:13;1.33;;;1.23;;
23302;SDS011;11820;48.738;9.092;2023-04-24T13:04:42;0.80;;;0.77;;
23302;SDS011;11820;48.738;9.092;2023-04-24T13:07:08;1.63;;;0.90;;
23302;SDS011;11820;48.738;9.092;2023-04-24T13:09:34;2.17;;;1.23;;
23302;SDS011;11820;48.738;9.092;2023-04-24T13:11:59;1.30;;;1.20;;
23302;SDS011;11820;48.738;9.092;2023-04-24T13:14:25;1.63;;;1.10;;
23302;SDS011;11820;48.738;9.092;2023-04-24T13:16:51;1.50;;;1.27;;
23302;SDS011;11820;48.738;9.092;2023-04-24T13:19:16;1.17;;;0.97;;
23302;SDS011;11820;48.738;9.092;2023-04-24T13:21:42;1.50;;;1.27;;
23302;SDS011;11820;48.738;9.092;2023-04-24T13:24:08;1.20;;;1.10;;
23302;SDS011;11820;48.738;9.092;2023-04-24T13:26:34;1.00;;;0.90;;
23302;SDS011;11820;48.738;9.092;2023-04-24T13:29:00;1.20;;;1.10;;
23302;SDS011;11820;48.738;9.092;2023-04-24T13:31:25;2.83;;;1.20;;
23302;SDS011;11820;48.738;9.092;2023-04-24T13:33:51;2.03;;;1.20;;
23302;SDS011;11820;48.738;9.092;2023-04-24T13:36:16;1.40;;;1.23;;
23302;SDS011;11820;48.738;9.092;2023-04-24T13:38:42;1.20;;;1.00;;
23302;SDS011;11820;48.738;9.092;2023-04-24T13:41:09;1.33;;;1.10;;
23302;SDS011;11820;48.738;9.092;2023-04-24T13:43:34;1.33;;;1.20;;
23302;SDS011;11820;48.738;9.092;2023-04-24T13:46:00;1.33;;;1.20;;
23302;SDS011;11820;48.738;9.092;2023-04-24T13:48:27;1.23;;;1.10;;
23302;SDS011;11820;48.738;9.092;2023-04-24T13:50:53;2.37;;;1.10;;
23302;SDS011;11820;48.738;9.092;2023-04-24T13:53:18;3.00;;;1.30;;
23302;SDS011;11820;48.738;9.092;2023-04-24T13:55:44;1.43;;;0.87;;
23302;SDS011;11820;48.738;9.092;2023-04-24T13:58:09;2.27;;;1.30;;
23302;SDS011;11820;48.738;9.092;2023-04-24T14:00:35;3.50;;;1.20;;
23302;SDS011;11820;48.738;9.092;2023-04-24T14:03:00;2.60;;;1.50;;
23302;SDS011;11820;48.738;9.092;2023-04-24T14:05:26;1.23;;;1.13;;
23302;SDS011;11820;48.738;9.092;2023-04-24T14:07:51;2.10;;;1.80;;
23302;SDS011;11820;48.738;9.092;2023-04-24T14:10:16;1.30;;;1.20;;
23302;SDS011;11820;48.738;9.092;2023-04-24T14:12:42;1.87;;;1.40;;
23302;SDS011;11820;48.738;9.092;2023-04-24T14:15:07;1.63;;;1.00;;
23302;SDS011;11820;48.738;9.092;2023-04-24T14:17:33;1.40;;;1.00;;
23302;SDS011;11820;48.738;9.092;2023-04-24T14:19:59;5.17;;;1.30;;
23302;SDS011;11820;48.738;9.092;2023-04-24T14:22:25;2.67;;;1.20;;
23302;SDS011;11820;48.738;9.092;2023-04-24T14:24:51;2.60;;;1.70;;
23302;SDS011;11820;48.738;9.092;2023-04-24T14:27:16;3.43;;;1.30;;
23302;SDS011;11820;48.738;9.092;2023-04-24T14:29:41;1.53;;;1.37;;
23302;SDS011;11820;48.738;9.092;2023-04-24T14:32:07;1.23;;;1.13;;
23302;SDS011;11820;48.738;9.092;2023-04-24T14:34:33;1.73;;;1.07;;
23302;SDS011;11820;48.738;9.092;2023-04-24T14:36:59;2.43;;;1.27;;
23302;SDS011;11820;48.738;9.092;2023-04-24T14:39:24;2.23;;;1.30;;
23302;SDS011;11820;48.738;9.092;2023-04-24T14:41:50;1.00;;;1.00;;
23302;SDS011;11820;48.738;9.092;2023-04-24T14:44:15;2.60;;;1.30;;
23302;SDS011;11820;48.738;9.092;2023-04-24T14:46:41;2.83;;;1.47;;
23302;SDS011;11820;48.738;9.092;2023-04-24T14:49:08;1.03;;;1.00;;
23302;SDS011;11820;48.738;9.092;2023-04-24T14:51:35;2.50;;;1.93;;
23302;SDS011;11820;48.738;9.092;2023-04-24T14:54:00;2.40;;;1.80;;
23302;SDS011;11820;48.738;9.092;2023-04-24T14:56:26;2.17;;;1.93;;